Wellsburg, Iowa
Current Conditions -  °F | °C
As of 8:35 AM on Saturday 22 Nov 2014 (Local Time) from KIFA Reporting Station
Light Snow Light Snow  
Wind Chill: 29°   Ceiling: 200
Heat Index: 36°   Visibility: 0mi
Dew Point: 35°   Wind: 9mph
Humidity: 96%   Direction: 190°S
Pressure: 29.86"   Gusts: NA
Location:  42.46°N, 92.94°W
Report Text: KIFA 221435Z AUTO 19008KT M1/4SM -SN OVC002 02/01 A2986 RMK AO2 T00200014
Loading
Personal Weather Stations






























Interactive Weather Map New forecast layout! Learn more

10-Day Weather Forecast

Advertisements
Track Severe Weather on mobile